createdAt,value
2018-01-11T00:00:08.497Z,23.33
2018-01-11T00:02:37.440Z,23.00
2018-01-11T00:05:07.154Z,22.90
2018-01-11T00:07:36.108Z,21.47
2018-01-11T00:10:05.467Z,18.67
2018-01-11T00:12:34.448Z,24.47
2018-01-11T00:15:03.884Z,26.07
2018-01-11T00:17:33.684Z,24.00
2018-01-11T00:20:02.639Z,23.03
2018-01-11T00:22:31.611Z,24.33
2018-01-11T00:25:00.613Z,18.17
2018-01-11T00:27:30.338Z,25.27
2018-01-11T00:29:59.324Z,21.27
2018-01-11T00:32:28.273Z,43.97
2018-01-11T00:34:58.026Z,22.37
2018-01-11T00:37:27.403Z,77.50
2018-01-11T00:39:57.193Z,23.77
2018-01-11T00:42:26.138Z,25.13
2018-01-11T00:44:55.527Z,23.77
2018-01-11T00:47:25.236Z,55.37
2018-01-11T00:49:54.972Z,33.10
2018-01-11T00:52:24.703Z,28.73
2018-01-11T00:54:54.558Z,23.20
2018-01-11T00:57:23.480Z,49.20
2018-01-11T00:59:52.432Z,41.77
2018-01-11T01:02:21.432Z,151.50
2018-01-11T01:04:51.141Z,33.37
2018-01-11T01:07:20.882Z,44.47
2018-01-11T01:09:49.878Z,28.03
2018-01-11T01:12:18.841Z,51.17
2018-01-11T01:14:48.608Z,50.27
2018-01-11T01:17:17.595Z,20.90
2018-01-11T01:19:46.544Z,22.40
2018-01-11T01:22:15.495Z,33.53
2018-01-11T01:24:44.451Z,26.30
2018-01-11T01:27:13.432Z,21.87
2018-01-11T01:29:43.158Z,23.13
2018-01-11T01:32:12.150Z,28.23
2018-01-11T01:34:41.492Z,29.43
2018-01-11T01:37:10.892Z,19.03
2018-01-11T01:39:40.618Z,19.40
2018-01-11T01:42:10.328Z,23.40
2018-01-11T01:44:40.063Z,24.00
2018-01-11T01:47:09.016Z,18.80
2018-01-11T01:49:39.556Z,24.13
2018-01-11T01:52:09.304Z,23.20
2018-01-11T01:54:39.425Z,26.03
2018-01-11T01:57:08.382Z,23.63
2018-01-11T01:59:37.773Z,23.33
2018-01-11T02:02:07.539Z,18.40
2018-01-11T02:04:36.499Z,20.63
2018-01-11T02:07:05.885Z,29.43
2018-01-11T02:09:35.694Z,24.83
2018-01-11T02:12:04.714Z,21.43
2018-01-11T02:14:33.656Z,30.47
2018-01-11T02:17:03.405Z,19.87
2018-01-11T02:19:32.740Z,21.60
2018-01-11T02:22:01.676Z,19.30
2018-01-11T02:24:31.416Z,21.50
2018-01-11T02:27:00.587Z,23.50
2018-01-11T02:29:29.525Z,21.90
2018-01-11T02:31:58.869Z,17.83
2018-01-11T02:34:27.951Z,20.20
2018-01-11T02:36:56.894Z,20.03
2018-01-11T02:39:25.860Z,21.37
2018-01-11T02:41:55.593Z,23.93
2018-01-11T02:44:24.557Z,18.23
2018-01-11T02:46:54.307Z,19.03
2018-01-11T02:49:23.646Z,22.43
2018-01-11T02:51:53.388Z,18.30
2018-01-11T02:54:22.739Z,21.50
2018-01-11T02:56:51.773Z,22.60
2018-01-11T02:59:20.750Z,22.37
2018-01-11T03:01:50.153Z,28.13
2018-01-11T03:04:19.508Z,23.57
2018-01-11T03:06:48.883Z,27.33
2018-01-11T03:09:18.785Z,29.10
2018-01-11T03:11:47.761Z,27.77
2018-01-11T03:14:17.504Z,23.77
2018-01-11T03:16:46.448Z,30.70
2018-01-11T03:19:15.581Z,27.53
2018-01-11T03:21:45.296Z,30.07
2018-01-11T03:24:14.248Z,26.00
2018-01-11T03:26:43.220Z,21.90
2018-01-11T03:29:12.562Z,27.27
2018-01-11T03:31:42.288Z,26.73
2018-01-11T03:34:11.370Z,29.40
2018-01-11T03:36:40.370Z,26.30
2018-01-11T03:39:10.098Z,25.83
2018-01-11T03:41:39.446Z,19.20
2018-01-11T03:44:08.509Z,25.97
2018-01-11T03:46:38.215Z,27.67
2018-01-11T03:49:08.333Z,27.23
2018-01-11T03:51:38.415Z,27.60
2018-01-11T03:54:07.789Z,27.77
2018-01-11T03:56:36.782Z,26.60
2018-01-11T03:59:07.273Z,28.40
2018-01-11T04:01:36.762Z,25.20
2018-01-11T04:04:05.736Z,33.17
2018-01-11T04:06:34.693Z,25.07
2018-01-11T04:09:03.687Z,21.73
2018-01-11T04:11:32.620Z,24.17
2018-01-11T04:14:01.538Z,26.77
2018-01-11T04:16:30.503Z,21.67
2018-01-11T04:18:59.649Z,33.93
2018-01-11T04:21:29.402Z,32.23
2018-01-11T04:23:58.355Z,29.00
2018-01-11T04:26:27.387Z,37.30
2018-01-11T04:28:56.752Z,34.57
2018-01-11T04:31:25.725Z,32.60
2018-01-11T04:33:54.711Z,35.10
2018-01-11T04:36:23.658Z,86.73
2018-01-11T04:38:53.451Z,37.27
2018-01-11T04:41:22.779Z,67.80
2018-01-11T04:43:52.515Z,58.10
2018-01-11T04:46:21.473Z,47.77
2018-01-11T04:48:51.395Z,39.77
2018-01-11T04:51:21.190Z,33.00
2018-01-11T04:53:50.163Z,25.07
2018-01-11T04:56:19.904Z,24.67
2018-01-11T04:58:49.615Z,21.67
2018-01-11T05:01:19.392Z,28.33
2018-01-11T05:03:48.424Z,23.43
2018-01-11T05:06:17.364Z,30.77
2018-01-11T05:08:46.316Z,24.03
2018-01-11T05:11:15.692Z,29.70
2018-01-11T05:13:45.484Z,26.40
2018-01-11T05:16:14.433Z,22.40
2018-01-11T05:18:43.794Z,24.70
2018-01-11T05:21:13.516Z,20.77
2018-01-11T05:23:43.308Z,23.83
2018-01-11T05:26:13.013Z,22.30
2018-01-11T05:28:41.985Z,28.33
2018-01-11T05:31:11.349Z,22.33
2018-01-11T05:33:40.353Z,21.20
2018-01-11T05:36:09.700Z,20.63
2018-01-11T05:38:38.642Z,26.00
2018-01-11T05:41:07.654Z,21.70
2018-01-11T05:43:36.625Z,23.50
2018-01-11T05:46:05.577Z,23.93
2018-01-11T05:48:35.312Z,22.60
2018-01-11T05:51:04.264Z,26.80
2018-01-11T05:53:34.007Z,20.33
2018-01-11T05:56:02.963Z,19.70
2018-01-11T05:58:32.050Z,18.53
2018-01-11T06:01:00.992Z,19.30
2018-01-11T06:03:29.948Z,23.10
2018-01-11T06:06:00.427Z,24.83
2018-01-11T06:08:29.406Z,19.63
2018-01-11T06:10:58.402Z,22.93
2018-01-11T06:13:27.370Z,25.20
2018-01-11T06:15:57.085Z,18.73
2018-01-11T06:18:26.460Z,19.50
2018-01-11T06:20:55.392Z,23.43
2018-01-11T06:23:24.462Z,22.53
2018-01-11T06:25:53.448Z,23.13
2018-01-11T06:28:22.791Z,17.80
2018-01-11T06:30:51.781Z,18.00
2018-01-11T06:33:20.741Z,13.40
2018-01-11T06:35:50.485Z,15.77
2018-01-11T06:38:19.442Z,19.60
2018-01-11T06:40:49.220Z,18.70
2018-01-11T06:43:18.607Z,19.47
2018-01-11T06:45:47.571Z,20.40
2018-01-11T06:48:16.539Z,20.30
2018-01-11T06:50:45.524Z,20.10
2018-01-11T06:53:14.477Z,16.60
2018-01-11T06:55:43.525Z,16.73
2018-01-11T06:58:12.896Z,15.20
2018-01-11T07:00:42.292Z,15.83
2018-01-11T07:03:11.649Z,13.10
2018-01-11T07:05:40.592Z,15.57
2018-01-11T07:08:09.622Z,13.00
2018-01-11T07:10:38.590Z,14.57
2018-01-11T07:13:08.407Z,14.93
2018-01-11T07:15:37.340Z,14.60
2018-01-11T07:18:06.316Z,15.80
2018-01-11T07:20:35.383Z,13.67
2018-01-11T07:23:04.333Z,17.27
2018-01-11T07:25:33.369Z,15.37
2018-01-11T07:28:03.080Z,14.27
2018-01-11T07:30:32.820Z,15.00
2018-01-11T07:33:02.545Z,14.90
2018-01-11T07:35:31.491Z,14.57
2018-01-11T07:38:01.275Z,14.57
2018-01-11T07:40:31.742Z,16.80
2018-01-11T07:43:01.479Z,14.10
2018-01-11T07:45:30.433Z,16.90
2018-01-11T07:47:59.837Z,12.90
2018-01-11T07:50:29.586Z,11.77
2018-01-11T07:52:58.555Z,14.87
2018-01-11T07:55:27.913Z,18.93
2018-01-11T07:57:58.395Z,18.03
2018-01-11T08:00:27.350Z,14.30
2018-01-11T08:02:57.084Z,15.07
2018-01-11T08:05:26.029Z,12.50
2018-01-11T08:07:54.999Z,14.60
2018-01-11T08:10:24.085Z,17.80
2018-01-11T08:12:54.571Z,15.83
2018-01-11T08:15:24.317Z,22.80
2018-01-11T08:17:53.707Z,23.70
2018-01-11T08:20:22.653Z,28.93
2018-01-11T08:22:51.607Z,25.80
2018-01-11T08:25:20.579Z,20.00
2018-01-11T08:27:49.536Z,28.57
2018-01-11T08:30:18.543Z,22.80
2018-01-11T08:32:47.501Z,23.37
2018-01-11T08:35:16.523Z,20.23
2018-01-11T08:37:45.489Z,23.03
2018-01-11T08:40:15.976Z,17.47
2018-01-11T08:42:44.922Z,19.20
2018-01-11T08:45:14.700Z,18.33
2018-01-11T08:47:43.646Z,17.60
2018-01-11T08:50:13.446Z,14.40
2018-01-11T08:52:42.418Z,17.00
2018-01-11T08:55:11.360Z,17.07
2018-01-11T08:57:40.347Z,18.07
2018-01-11T09:00:09.678Z,14.80
2018-01-11T09:02:38.682Z,16.83
2018-01-11T09:05:07.621Z,16.50
2018-01-11T09:07:36.598Z,14.40
2018-01-11T09:10:06.308Z,21.17
2018-01-11T09:12:36.032Z,19.27
2018-01-11T09:15:05.792Z,19.10
2018-01-11T09:17:35.139Z,18.20
2018-01-11T09:20:04.093Z,16.13
2018-01-11T09:22:33.510Z,19.00
2018-01-11T09:25:02.472Z,18.10
2018-01-11T09:27:31.419Z,15.17
2018-01-11T09:30:00.811Z,15.83
2018-01-11T09:32:30.533Z,16.27
2018-01-11T09:35:00.297Z,17.63
2018-01-11T09:37:29.700Z,18.33
2018-01-11T09:39:58.647Z,18.43
2018-01-11T09:42:27.627Z,18.73
2018-01-11T09:44:56.580Z,21.33
2018-01-11T09:47:25.539Z,17.13
2018-01-11T09:49:54.917Z,21.77
2018-01-11T09:52:24.721Z,24.40
2018-01-11T09:54:53.749Z,26.20
2018-01-11T09:57:23.051Z,18.63
2018-01-11T09:59:52.259Z,21.37
2018-01-11T10:02:21.305Z,19.90
2018-01-11T10:04:50.762Z,18.33
2018-01-11T10:07:20.183Z,25.53
2018-01-11T10:09:50.671Z,18.57
2018-01-11T10:12:20.455Z,16.80
2018-01-11T10:14:50.604Z,17.73
2018-01-11T10:17:20.742Z,19.60
2018-01-11T10:19:50.671Z,17.43
2018-01-11T10:22:19.633Z,18.10
2018-01-11T10:24:49.130Z,18.63
2018-01-11T10:27:18.949Z,18.30
2018-01-11T10:29:49.337Z,19.10
2018-01-11T10:32:20.051Z,23.03
2018-01-11T10:34:49.774Z,23.23
2018-01-11T10:37:20.339Z,30.17
2018-01-11T10:39:50.085Z,19.63
2018-01-11T10:42:19.088Z,20.80
2018-01-11T10:44:48.466Z,24.97
2018-01-11T10:47:18.534Z,16.77
2018-01-11T10:49:48.270Z,17.40
2018-01-11T10:52:17.956Z,14.37
2018-01-11T10:54:47.756Z,20.60
2018-01-11T10:57:17.574Z,17.80
2018-01-11T10:59:46.532Z,29.30
2018-01-11T11:02:21.698Z,22.93
2018-01-11T11:04:52.343Z,29.80
2018-01-11T11:07:22.250Z,24.50
2018-01-11T11:09:51.986Z,22.70
2018-01-11T11:12:21.770Z,30.97
2018-01-11T11:14:51.683Z,19.90
2018-01-11T11:17:20.689Z,28.97
2018-01-11T11:19:50.067Z,30.07
2018-01-11T11:22:20.668Z,32.70
2018-01-11T11:24:51.001Z,30.43
2018-01-11T11:27:21.654Z,33.20
2018-01-11T11:29:53.004Z,25.63
2018-01-11T11:32:23.637Z,31.30
2018-01-11T11:34:52.585Z,29.30
2018-01-11T11:37:21.593Z,26.70
2018-01-11T11:39:50.582Z,27.60
2018-01-11T11:42:19.581Z,22.30
2018-01-11T11:44:48.563Z,25.20
2018-01-11T11:47:19.456Z,38.37
2018-01-11T11:49:48.432Z,28.73
2018-01-11T11:52:17.457Z,26.23
2018-01-11T11:54:46.829Z,26.67
2018-01-11T11:57:17.231Z,28.43
2018-01-11T11:59:46.993Z,27.43
2018-01-11T12:02:15.956Z,27.00
2018-01-11T12:04:46.048Z,25.07
2018-01-11T12:07:16.808Z,29.20
2018-01-11T12:09:46.660Z,38.50
2018-01-11T12:12:16.760Z,41.17
2018-01-11T12:14:45.777Z,32.23
2018-01-11T12:17:14.746Z,41.17
2018-01-11T12:19:43.807Z,36.80
2018-01-11T12:22:12.774Z,35.23
2018-01-11T12:24:42.139Z,26.93
2018-01-11T12:27:11.994Z,25.40
2018-01-11T12:29:42.072Z,24.37
2018-01-11T12:32:11.049Z,21.77
2018-01-11T12:34:40.013Z,28.60
2018-01-11T12:37:09.735Z,26.90
2018-01-11T12:39:38.680Z,25.20
2018-01-11T12:42:07.663Z,26.10
2018-01-11T12:44:36.606Z,25.43
2018-01-11T12:47:05.622Z,22.37
2018-01-11T12:49:34.591Z,21.40
2018-01-11T12:52:04.786Z,23.30
2018-01-11T12:54:33.741Z,24.27
2018-01-11T12:57:03.495Z,20.37
2018-01-11T12:59:32.556Z,20.03
2018-01-11T13:02:01.528Z,19.23
2018-01-11T13:04:30.468Z,23.13
2018-01-11T13:07:00.218Z,19.40
2018-01-11T13:09:30.323Z,18.87
2018-01-11T13:11:59.348Z,18.87
2018-01-11T13:14:29.440Z,19.20
2018-01-11T13:16:58.423Z,16.47
2018-01-11T13:19:27.380Z,18.47
2018-01-11T13:21:56.397Z,17.73
2018-01-11T13:24:25.352Z,17.70
2018-01-11T13:26:54.349Z,18.47
2018-01-11T13:29:23.725Z,16.93
2018-01-11T13:31:53.485Z,19.03
2018-01-11T13:34:23.209Z,16.93
2018-01-11T13:36:52.950Z,15.10
2018-01-11T13:39:21.916Z,16.53
2018-01-11T13:41:50.894Z,16.63
2018-01-11T13:44:19.828Z,18.23
2018-01-11T13:46:49.594Z,16.00
2018-01-11T13:49:19.329Z,15.93
2018-01-11T13:51:48.876Z,17.10
2018-01-11T13:54:18.280Z,15.27
2018-01-11T13:56:47.654Z,18.17
2018-01-11T13:59:16.615Z,16.93
2018-01-11T14:01:45.601Z,16.17
2018-01-11T14:04:15.408Z,18.00
2018-01-11T14:06:44.764Z,15.83
2018-01-11T14:09:14.473Z,18.70
2018-01-11T14:11:43.473Z,17.43
2018-01-11T14:14:12.413Z,19.60
2018-01-11T14:16:42.153Z,18.10
2018-01-11T14:19:11.618Z,18.33
2018-01-11T14:21:40.569Z,20.90
2018-01-11T14:24:09.603Z,20.63
2018-01-11T14:26:38.560Z,18.73
2018-01-11T14:29:07.549Z,17.93
2018-01-11T14:31:37.355Z,21.40
2018-01-11T14:34:06.307Z,24.60
2018-01-11T14:36:35.268Z,16.43
2018-01-11T14:39:04.231Z,20.73
2018-01-11T14:41:33.271Z,19.20
2018-01-11T14:44:02.603Z,20.50
2018-01-11T14:46:31.953Z,18.63
2018-01-11T14:49:06.079Z,20.17
2018-01-11T14:51:35.400Z,21.53
2018-01-11T14:54:04.389Z,23.40
2018-01-11T14:56:34.084Z,17.93
2018-01-11T14:59:03.831Z,24.87
2018-01-11T15:01:33.563Z,22.87
2018-01-11T15:04:02.503Z,25.13
2018-01-11T15:06:32.245Z,25.57
2018-01-11T15:09:02.331Z,27.30
2018-01-11T15:11:32.083Z,27.17
2018-01-11T15:14:01.432Z,22.70
2018-01-11T15:16:31.170Z,26.40
2018-01-11T15:19:00.169Z,21.37
2018-01-11T15:21:29.471Z,19.10
2018-01-11T15:23:58.417Z,20.23
2018-01-11T15:26:27.789Z,25.70
2018-01-11T15:28:56.831Z,26.50
2018-01-11T15:31:26.589Z,23.63
2018-01-11T15:33:55.624Z,25.47
2018-01-11T15:36:24.589Z,23.63
2018-01-11T15:38:53.532Z,28.37
2018-01-11T15:41:22.489Z,29.53
2018-01-11T15:43:52.238Z,26.37
2018-01-11T15:46:21.223Z,27.97
2018-01-11T15:48:50.180Z,28.07
2018-01-11T15:51:19.934Z,28.90
2018-01-11T15:53:49.657Z,26.03
2018-01-11T15:56:18.636Z,29.00
2018-01-11T15:58:47.701Z,31.53
2018-01-11T16:01:16.656Z,29.30
2018-01-11T16:03:45.641Z,30.33
2018-01-11T16:06:14.724Z,31.73
2018-01-11T16:08:44.415Z,30.40
2018-01-11T16:11:13.421Z,30.37
2018-01-11T16:13:42.399Z,29.77
2018-01-11T16:16:11.751Z,27.50
2018-01-11T16:18:40.733Z,26.57
2018-01-11T16:21:10.168Z,30.73
2018-01-11T16:23:39.543Z,27.50
2018-01-11T16:26:08.581Z,29.07
2018-01-11T16:28:37.501Z,30.90
2018-01-11T16:31:06.479Z,28.83
2018-01-11T16:33:35.431Z,30.93
2018-01-11T16:36:05.191Z,28.80
2018-01-11T16:38:35.237Z,33.70
2018-01-11T16:41:04.232Z,33.93
2018-01-11T16:43:33.924Z,31.20
2018-01-11T16:46:02.876Z,34.17
2018-01-11T16:48:31.869Z,33.83
2018-01-11T16:51:00.843Z,33.57
2018-01-11T16:53:30.242Z,34.57
2018-01-11T16:55:59.586Z,37.70
2018-01-11T16:58:29.369Z,35.10
2018-01-11T17:00:58.298Z,35.47
2018-01-11T17:03:27.646Z,39.87
2018-01-11T17:05:56.615Z,30.30
2018-01-11T17:08:27.097Z,37.33
2018-01-11T17:10:56.081Z,33.53
2018-01-11T17:13:25.036Z,32.30
2018-01-11T17:15:54.005Z,38.67
2018-01-11T17:18:24.504Z,34.57
2018-01-11T17:20:53.494Z,40.90
2018-01-11T17:23:22.892Z,39.37
2018-01-11T17:25:52.245Z,35.87
2018-01-11T17:28:21.974Z,39.53
2018-01-11T17:30:51.786Z,39.30
2018-01-11T17:33:20.753Z,39.53
2018-01-11T17:35:49.770Z,37.90
2018-01-11T17:38:18.714Z,38.27
2018-01-11T17:40:47.756Z,36.87
2018-01-11T17:43:16.700Z,37.43
2018-01-11T17:45:46.472Z,34.23
2018-01-11T17:48:16.208Z,36.37
2018-01-11T17:50:45.161Z,32.70
2018-01-11T17:53:14.997Z,38.50
2018-01-11T17:55:44.357Z,37.87
2018-01-11T17:58:13.732Z,41.33
2018-01-11T18:00:43.131Z,38.40
2018-01-11T18:03:12.212Z,37.70
2018-01-11T18:05:41.549Z,35.10
2018-01-11T18:08:10.513Z,36.03
2018-01-11T18:10:39.490Z,39.80
2018-01-11T18:13:08.488Z,36.70
2018-01-11T18:15:37.951Z,40.10
2018-01-11T18:18:07.678Z,38.30
2018-01-11T18:20:36.625Z,41.37
2018-01-11T18:23:05.645Z,39.10
2018-01-11T18:25:36.543Z,36.17
2018-01-11T18:28:05.967Z,39.77
2018-01-11T18:30:34.917Z,41.10
2018-01-11T18:33:03.972Z,37.90
2018-01-11T18:35:32.974Z,39.17
2018-01-11T18:38:02.849Z,41.00
2018-01-11T18:40:33.393Z,36.07
2018-01-11T18:43:02.454Z,47.80
2018-01-11T18:45:31.924Z,40.20
2018-01-11T18:48:01.681Z,43.83
2018-01-11T18:50:30.678Z,40.00
2018-01-11T18:52:59.697Z,41.03
2018-01-11T18:55:29.703Z,43.97
2018-01-11T18:57:58.680Z,39.07
2018-01-11T19:00:28.157Z,39.87
2018-01-11T19:02:57.183Z,41.30
2018-01-11T19:05:26.186Z,39.20
2018-01-11T19:07:55.144Z,45.30
2018-01-11T19:10:24.575Z,43.27
2018-01-11T19:12:55.222Z,41.30
2018-01-11T19:15:24.256Z,41.00
2018-01-11T19:17:54.042Z,41.43
2018-01-11T19:20:23.844Z,39.00
2018-01-11T19:22:53.596Z,44.63
2018-01-11T19:25:23.786Z,43.10
2018-01-11T19:27:53.625Z,39.27
2018-01-11T19:30:23.043Z,40.27
2018-01-11T19:32:52.488Z,42.13
2018-01-11T19:35:21.940Z,38.77
2018-01-11T19:37:52.074Z,38.13
2018-01-11T19:40:21.870Z,39.93
2018-01-11T19:42:52.656Z,36.70
2018-01-11T19:45:21.649Z,48.13
2018-01-11T19:47:51.467Z,40.43
2018-01-11T19:50:20.848Z,39.80
2018-01-11T19:52:50.267Z,41.57
2018-01-11T19:55:20.037Z,41.40
2018-01-11T19:57:49.993Z,42.10
2018-01-11T20:00:20.556Z,45.07
2018-01-11T20:02:49.584Z,46.00
2018-01-11T20:05:18.569Z,47.60
2018-01-11T20:07:47.620Z,43.27
2018-01-11T20:10:17.388Z,41.27
2018-01-11T20:12:46.403Z,41.13
2018-01-11T20:15:15.496Z,39.80
2018-01-11T20:17:44.848Z,39.80
2018-01-11T20:20:13.969Z,39.17
2018-01-11T20:22:44.809Z,36.97
2018-01-11T20:25:14.351Z,40.93
2018-01-11T20:27:43.802Z,36.43
2018-01-11T20:30:12.834Z,35.43
2018-01-11T20:32:43.462Z,43.47
2018-01-11T20:35:13.274Z,41.33
2018-01-11T20:37:42.666Z,48.30
2018-01-11T20:40:11.782Z,52.70
2018-01-11T20:42:41.157Z,59.47
2018-01-11T20:45:10.859Z,52.25
2018-01-11T20:47:40.654Z,47.77
2018-01-11T20:50:09.750Z,46.20
2018-01-11T20:52:40.385Z,43.90
2018-01-11T20:55:09.874Z,40.10
2018-01-11T20:57:39.714Z,43.03
2018-01-11T21:00:11.129Z,56.87
2018-01-11T21:02:40.949Z,40.13
2018-01-11T21:05:09.986Z,44.20
2018-01-11T21:07:39.832Z,47.63
2018-01-11T21:10:10.403Z,43.50
2018-01-11T21:12:41.714Z,43.90
2018-01-11T21:15:10.755Z,41.37
2018-01-11T21:17:41.309Z,39.80
2018-01-11T21:20:10.703Z,45.57
2018-01-11T21:22:40.505Z,41.77
2018-01-11T21:25:09.959Z,43.47
2018-01-11T21:27:39.770Z,42.03
2018-01-11T21:30:09.571Z,39.70
2018-01-11T21:32:39.452Z,39.87
2018-01-11T21:35:08.863Z,39.13
2018-01-11T21:37:38.648Z,41.03
2018-01-11T21:40:08.012Z,42.50
2018-01-11T21:42:37.880Z,40.40
2018-01-11T21:45:07.710Z,36.43
2018-01-11T21:47:38.270Z,41.77
2018-01-11T21:50:07.746Z,37.10
2018-01-11T21:52:37.153Z,39.50
2018-01-11T21:55:06.539Z,49.93
2018-01-11T21:57:35.900Z,34.53
2018-01-11T22:00:05.284Z,39.57
2018-01-11T22:02:34.305Z,38.27
2018-01-11T22:05:03.290Z,35.50
2018-01-11T22:07:32.708Z,38.93
2018-01-11T22:10:02.882Z,34.37
2018-01-11T22:12:31.837Z,36.53
2018-01-11T22:15:01.583Z,36.30
2018-01-11T22:17:30.613Z,33.80
2018-01-11T22:19:59.865Z,40.27
2018-01-11T22:22:29.237Z,35.53
2018-01-11T22:24:58.971Z,31.87
2018-01-11T22:27:28.715Z,30.77
2018-01-11T22:29:58.086Z,33.90
2018-01-11T22:32:27.149Z,30.10
2018-01-11T22:34:57.624Z,27.27
2018-01-11T22:37:27.367Z,31.50
2018-01-11T22:39:56.308Z,27.60
2018-01-11T22:42:25.796Z,29.30
2018-01-11T22:44:55.552Z,28.87
2018-01-11T22:47:24.525Z,31.97
2018-01-11T22:49:53.559Z,32.80
2018-01-11T22:52:22.572Z,35.87
2018-01-11T22:54:51.527Z,32.47
2018-01-11T22:57:20.556Z,31.47
2018-01-11T22:59:49.493Z,33.83
2018-01-11T23:02:18.461Z,27.87
2018-01-11T23:04:47.430Z,27.73
2018-01-11T23:07:16.385Z,27.27
2018-01-11T23:09:45.721Z,30.83
2018-01-11T23:12:15.511Z,29.27
2018-01-11T23:14:45.257Z,28.17
2018-01-11T23:17:14.225Z,26.27
2018-01-11T23:19:43.548Z,26.10
2018-01-11T23:22:12.542Z,25.77
2018-01-11T23:24:41.532Z,22.80
2018-01-11T23:27:10.588Z,25.57
2018-01-11T23:29:40.302Z,25.37
2018-01-11T23:32:09.353Z,24.00
2018-01-11T23:34:38.711Z,25.20
2018-01-11T23:37:07.714Z,28.97
2018-01-11T23:39:37.470Z,23.23
2018-01-11T23:42:06.450Z,34.33
2018-01-11T23:44:35.795Z,26.57
2018-01-11T23:47:05.586Z,21.37
2018-01-11T23:49:35.304Z,19.80
2018-01-11T23:52:04.253Z,22.73
2018-01-11T23:54:33.610Z,20.90
2018-01-11T23:57:02.563Z,30.10
2018-01-11T23:59:31.618Z,22.00
